Time;durP1;ratioP1;P1;durP2;ratioP2;P2;SDS_P1;SDS_P2;PMS_P1;PMS_P2;Temp;Humidity;BMP_temperature;BMP_pressure;BME280_temperature;BME280_humidity;BME280_pressure;Samples;Min_cycle;Max_cycle;Signal;HPM_P1;HPM_P2
2023/02/28 00:01:27;;;;;;;0.70;0.70;;;;;;;5.53;73.03;102427.78;4963937;28;20046;-50
2023/02/28 00:03:52;;;;;;;0.98;0.65;;;;;;;5.60;72.94;102422.94;4968169;28;20031;-48
2023/02/28 00:06:18;;;;;;;2.13;1.33;;;;;;;5.55;73.48;102428.31;4954818;28;20031;-45
2023/02/28 00:08:43;;;;;;;0.60;0.60;;;;;;;5.42;73.37;102427.03;4939451;28;20043;-48
2023/02/28 00:11:11;;;;;;;0.70;0.70;;;;;;;5.30;73.14;102430.03;4971482;28;20062;-46
2023/02/28 00:13:43;;;;;;;0.57;0.57;;;;;;;5.33;73.17;102418.81;4971245;28;20446;-46
2023/02/28 00:16:13;;;;;;;0.45;0.45;;;;;;;5.44;73.34;102420.34;4966464;28;20189;-45
2023/02/28 00:18:38;;;;;;;0.47;0.47;;;;;;;5.35;72.57;102422.03;4965073;28;20386;-48
2023/02/28 00:21:05;;;;;;;2.08;1.25;;;;;;;5.44;72.72;102420.34;4950767;28;20034;-52
2023/02/28 00:23:30;;;;;;;0.93;0.60;;;;;;;5.44;72.74;102428.38;4952427;28;20032;-48
2023/02/28 00:25:56;;;;;;;0.80;0.80;;;;;;;5.37;73.01;102417.19;4956376;28;20031;-45
2023/02/28 00:28:21;;;;;;;0.60;0.60;;;;;;;5.25;72.99;102421.25;4924177;29;20730;-48
2023/02/28 00:30:47;;;;;;;0.40;0.40;;;;;;;5.08;74.28;102421.63;4939775;28;20038;-45
2023/02/28 00:33:13;;;;;;;0.70;0.60;;;;;;;4.97;74.08;102421.94;4946195;29;20050;-45
2023/02/28 00:35:39;;;;;;;0.30;0.30;;;;;;;4.91;74.40;102417.69;4936590;29;20035;-48
2023/02/28 00:38:04;;;;;;;0.30;0.30;;;;;;;4.77;74.56;102424.66;4964613;28;20087;-51
2023/02/28 00:40:30;;;;;;;1.15;1.15;;;;;;;4.65;75.52;102422.28;4939736;28;20509;-50
2023/02/28 00:42:55;;;;;;;0.57;0.57;;;;;;;4.61;76.26;102425.78;4955475;28;20055;-49
2023/02/28 00:45:21;;;;;;;0.57;0.38;;;;;;;4.53;76.38;102421.78;4935929;28;20122;-47
2023/02/28 00:47:49;;;;;;;0.40;0.40;;;;;;;4.43;76.93;102435.94;4963283;28;20038;-49
2023/02/28 00:50:16;;;;;;;1.05;0.77;;;;;;;4.43;77.26;102443.94;4964601;28;20050;-51
2023/02/28 00:52:42;;;;;;;0.68;0.68;;;;;;;4.35;77.47;102444.50;4968184;28;20505;-55
2023/02/28 00:55:08;;;;;;;0.40;0.40;;;;;;;4.44;77.67;102439.41;4968312;28;20031;-52
2023/02/28 00:57:33;;;;;;;0.50;0.50;;;;;;;4.37;78.13;102438.91;4931207;29;20042;-50
2023/02/28 00:59:59;;;;;;;0.85;0.50;;;;;;;4.29;78.05;102440.25;4950766;29;20063;-53
2023/02/28 01:02:24;;;;;;;0.40;0.40;;;;;;;4.12;78.28;102436.25;4950399;28;20394;-55
2023/02/28 01:04:51;;;;;;;0.57;0.57;;;;;;;4.08;79.11;102435.19;4965753;28;20043;-52
2023/02/28 01:07:17;;;;;;;0.70;0.60;;;;;;;4.00;79.60;102441.03;4947564;28;20368;-48
2023/02/28 01:09:45;;;;;;;0.63;0.35;;;;;;;4.08;79.08;102437.84;4936364;28;20367;-51
2023/02/28 01:12:11;;;;;;;0.40;0.40;;;;;;;4.07;79.46;102437.03;4938516;28;20043;-49
2023/02/28 01:14:37;;;;;;;0.30;0.30;;;;;;;3.99;79.60;102439.47;4934804;29;20054;-49
2023/02/28 01:17:02;;;;;;;0.85;0.85;;;;;;;3.96;79.72;102440.78;4953165;28;20035;-49
2023/02/28 01:19:28;;;;;;;0.65;0.57;;;;;;;3.99;80.11;102442.91;4967548;28;20038;-49
2023/02/28 01:21:53;;;;;;;0.43;0.43;;;;;;;3.91;79.76;102443.44;4953097;28;20484;-47
2023/02/28 01:24:19;;;;;;;0.60;0.60;;;;;;;3.80;80.48;102441.81;4961145;28;20573;-48
2023/02/28 01:26:44;;;;;;;0.50;0.50;;;;;;;3.93;80.16;102443.19;4953087;28;20031;-46
2023/02/28 01:29:10;;;;;;;0.40;0.40;;;;;;;4.07;79.28;102445.03;4966041;28;20418;-51
2023/02/28 01:31:35;;;;;;;0.63;0.63;;;;;;;4.05;79.14;102449.03;4945015;28;20041;-50
2023/02/28 01:34:02;;;;;;;0.60;0.60;;;;;;;3.92;79.79;102444.22;4947852;28;20485;-54
2023/02/28 01:36:30;;;;;;;0.52;0.52;;;;;;;3.84;80.67;102447.41;4930854;29;20117;-50
2023/02/28 01:38:56;;;;;;;1.02;1.00;;;;;;;3.71;80.64;102442.63;4940063;28;20026;-52
2023/02/28 01:41:25;;;;;;;0.35;0.35;;;;;;;3.60;81.08;102441.81;4942893;29;20486;-51
2023/02/28 01:43:52;;;;;;;0.55;0.55;;;;;;;3.57;81.53;102443.13;4933338;28;20165;-50
2023/02/28 01:46:17;;;;;;;0.52;0.52;;;;;;;3.54;81.73;102442.88;4957730;28;20479;-50
2023/02/28 01:48:57;;;;;;;0.55;0.55;;;;;;;3.62;81.14;102439.66;4937230;28;20524;-49
2023/02/28 01:51:34;;;;;;;1.90;0.55;;;;;;;3.38;81.21;102435.91;4945341;28;20354;-51
2023/02/28 01:54:05;;;;;;;0.65;0.50;;;;;;;3.30;81.94;102444.38;4964623;28;20560;-48
2023/02/28 01:56:35;;;;;;;0.50;0.50;;;;;;;3.49;81.54;102437.50;4949394;28;20046;-48
2023/02/28 01:59:04;;;;;;;0.75;0.73;;;;;;;3.53;80.88;102431.41;4957250;28;20035;-46
2023/02/28 02:01:30;;;;;;;0.32;0.32;;;;;;;3.51;80.96;102433.53;4923747;29;20028;-46
2023/02/28 02:04:00;;;;;;;0.45;0.45;;;;;;;3.57;81.07;102437.81;4952203;28;20035;-53
2023/02/28 02:06:35;;;;;;;0.30;0.30;;;;;;;3.64;80.27;102429.53;4948111;28;20023;-48
2023/02/28 02:09:02;;;;;;;0.38;0.38;;;;;;;3.55;80.08;102433.78;4952191;28;20034;-50
2023/02/28 02:11:29;;;;;;;0.50;0.50;;;;;;;3.45;80.44;102434.56;4950471;28;20030;-53
2023/02/28 02:14:34;;;;;;;0.40;0.40;;;;;;;3.29;81.25;102435.59;4933634;28;20094;-53
2023/02/28 02:17:14;;;;;;;1.05;0.70;;;;;;;3.22;81.30;102432.38;4952386;28;20102;-52
2023/02/28 02:20:11;;;;;;;0.47;0.47;;;;;;;3.30;81.32;102428.41;4955673;28;20039;-50
2023/02/28 02:23:01;;;;;;;0.43;0.43;;;;;;;3.16;81.81;102421.97;4945226;28;20038;-50
2023/02/28 02:25:50;;;;;;;0.50;0.50;;;;;;;3.17;81.86;102420.94;4941670;29;20044;-50
2023/02/28 02:28:53;;;;;;;0.40;0.40;;;;;;;3.14;81.91;102421.44;4935879;29;20086;-51
2023/02/28 02:32:00;;;;;;;0.50;0.50;;;;;;;3.07;82.21;102424.34;4947910;28;20078;-47
2023/02/28 02:35:03;;;;;;;0.30;0.30;;;;;;;3.03;81.67;102425.13;4916095;28;20047;-55
2023/02/28 02:37:56;;;;;;;0.20;0.20;;;;;;;2.95;82.44;102421.09;4964169;28;20058;-53
2023/02/28 02:40:25;;;;;;;0.40;0.40;;;;;;;2.88;82.60;102422.41;4948979;28;20039;-52
2023/02/28 02:43:12;;;;;;;0.35;0.35;;;;;;;2.75;82.98;102428.97;4962597;28;20544;-50
2023/02/28 02:45:46;;;;;;;0.73;0.65;;;;;;;2.76;83.35;102427.94;4949692;28;20049;-48
2023/02/28 02:48:15;;;;;;;0.35;0.35;;;;;;;2.77;83.13;102426.09;4927570;29;20463;-51
2023/02/28 02:50:48;;;;;;;0.47;0.47;;;;;;;2.83;83.02;102428.50;4963099;28;20038;-52
2023/02/28 02:53:17;;;;;;;0.43;0.43;;;;;;;2.77;83.38;102426.84;4948955;28;20565;-48
2023/02/28 02:55:46;;;;;;;0.30;0.30;;;;;;;2.94;82.84;102421.38;4957698;28;20047;-54
2023/02/28 02:58:19;;;;;;;0.43;0.43;;;;;;;2.80;82.60;102421.03;4947888;28;20043;-55
2023/02/28 03:00:52;;;;;;;0.30;0.30;;;;;;;2.74;82.99;102414.09;4952162;28;20066;-54
2023/02/28 03:03:28;;;;;;;0.40;0.40;;;;;;;2.80;83.01;102428.22;4951811;28;20062;-52
2023/02/28 03:05:57;;;;;;;0.35;0.35;;;;;;;2.66;83.15;102419.91;4950442;28;20031;-53
2023/02/28 03:08:24;;;;;;;0.30;0.30;;;;;;;2.53;83.19;102415.84;4938646;28;20383;-56
2023/02/28 03:10:55;;;;;;;0.63;0.43;;;;;;;2.51;83.95;102417.16;4939356;29;20089;-56
2023/02/28 03:13:39;;;;;;;0.30;0.30;;;;;;;2.43;84.66;102413.13;4952474;28;20992;-55
2023/02/28 03:16:37;;;;;;;0.40;0.40;;;;;;;2.47;84.39;102416.06;4949381;28;20028;-51
2023/02/28 03:19:13;;;;;;;0.43;0.43;;;;;;;2.53;84.35;102421.16;4962549;28;20043;-56
2023/02/28 03:22:08;;;;;;;0.45;0.45;;;;;;;2.51;84.25;102412.66;4950984;28;20053;-56
2023/02/28 03:24:45;;;;;;;0.30;0.30;;;;;;;2.39;84.60;102416.53;4915737;29;20047;-56
2023/02/28 03:27:26;;;;;;;0.40;0.40;;;;;;;2.45;84.56;102412.84;4965904;28;20027;-55
2023/02/28 03:30:04;;;;;;;0.60;0.60;;;;;;;2.23;84.56;102420.13;4955054;28;20039;-51
2023/02/28 03:32:38;;;;;;;0.30;0.30;;;;;;;2.34;84.75;102421.84;4951294;28;20563;-56
2023/02/28 03:35:21;;;;;;;0.40;0.40;;;;;;;2.49;84.33;102424.59;4954904;28;20573;-54
2023/02/28 03:37:52;;;;;;;0.30;0.30;;;;;;;2.42;84.31;102422.13;4954931;28;20045;-56
2023/02/28 03:40:23;;;;;;;0.30;0.30;;;;;;;2.36;83.82;102425.03;4947771;28;20675;-51
2023/02/28 03:42:54;;;;;;;0.30;0.30;;;;;;;2.41;83.73;102417.91;4954994;28;20383;-52
2023/02/28 03:45:22;;;;;;;;;;;;;;;2.25;84.17;102432.13;4951882;28;20630;-51
2023/02/28 03:48:24;;;;;;;0.30;0.30;;;;;;;2.31;84.56;102428.44;4945080;28;20289;-47
2023/02/28 03:50:53;;;;;;;0.30;0.30;;;;;;;2.40;84.30;102436.75;4950690;28;20051;-51
2023/02/28 03:53:28;;;;;;;0.77;0.77;;;;;;;2.15;84.31;102431.28;4944738;28;20056;-53
2023/02/28 03:56:00;;;;;;;0.30;0.30;;;;;;;1.95;85.20;102444.38;4966275;28;20114;-52
2023/02/28 03:58:36;;;;;;;0.82;0.63;;;;;;;2.02;85.07;102436.97;4955001;28;20382;-55
2023/02/28 04:01:11;;;;;;;0.30;0.30;;;;;;;2.09;85.68;102429.63;4942895;28;20031;-50
2023/02/28 04:03:37;;;;;;;0.30;0.30;;;;;;;2.22;85.06;102434.50;4954423;28;20498;-53
2023/02/28 04:06:03;;;;;;;0.40;0.40;;;;;;;2.20;85.18;102428.63;4986977;22;20034;-56
2023/02/28 04:08:29;;;;;;;0.77;0.77;;;;;;;2.03;84.83;102426.13;5015971;28;20052;-57
2023/02/28 04:11:01;;;;;;;0.30;0.30;;;;;;;1.95;85.73;102433.75;5013019;28;20033;-56
2023/02/28 04:13:27;;;;;;;0.30;0.30;;;;;;;2.19;85.72;102435.78;5002511;28;20399;-55
2023/02/28 04:15:52;;;;;;;0.30;0.30;;;;;;;2.26;83.57;102436.41;4998671;28;20057;-58
2023/02/28 04:18:18;;;;;;;0.98;0.98;;;;;;;2.13;84.84;102430.72;5006925;28;20100;-57
2023/02/28 04:20:43;;;;;;;0.50;0.50;;;;;;;2.19;84.82;102438.47;5012899;28;20044;-56
2023/02/28 04:23:09;;;;;;;0.35;0.35;;;;;;;2.25;83.71;102440.09;5007743;28;20079;-52
2023/02/28 04:25:34;;;;;;;0.68;0.50;;;;;;;2.12;84.22;102434.41;5009183;28;20033;-58
2023/02/28 04:27:59;;;;;;;0.40;0.40;;;;;;;2.03;84.97;102430.63;4999863;28;20039;-57
2023/02/28 04:30:45;;;;;;;0.35;0.32;;;;;;;2.01;84.83;102427.44;5011515;28;20381;-57
2023/02/28 04:33:11;;;;;;;0.30;0.30;;;;;;;2.04;84.89;102427.72;4935739;29;20047;-54
2023/02/28 04:35:36;;;;;;;0.30;0.30;;;;;;;1.86;84.99;102430.75;4934618;29;20042;-59
2023/02/28 04:38:02;;;;;;;0.20;0.20;;;;;;;1.91;85.66;102430.00;4951565;29;20043;-56
2023/02/28 04:40:27;;;;;;;0.30;0.30;;;;;;;1.98;85.44;102436.69;4931733;29;20122;-58
2023/02/28 04:42:53;;;;;;;0.32;0.32;;;;;;;1.99;85.09;102435.66;4951465;29;20125;-58
2023/02/28 04:45:18;;;;;;;0.30;0.30;;;;;;;1.99;84.98;102437.50;4943189;28;20051;-56
2023/02/28 04:47:44;;;;;;;1.08;0.45;;;;;;;2.07;84.85;102431.72;4950559;29;20050;-57
2023/02/28 04:50:10;;;;;;;0.45;0.45;;;;;;;1.92;84.80;102426.28;4951548;29;20058;-57
2023/02/28 04:52:35;;;;;;;0.30;0.30;;;;;;;1.96;84.88;102441.47;4951310;29;20055;-57
2023/02/28 04:55:01;;;;;;;0.30;0.30;;;;;;;1.96;84.27;102436.16;4950830;29;20031;-58
2023/02/28 04:57:48;;;;;;;0.30;0.30;;;;;;;1.88;85.18;102435.81;4950770;29;20511;-57
2023/02/28 05:00:16;;;;;;;0.15;0.15;;;;;;;1.43;85.74;102442.25;4876036;29;20097;-58
2023/02/28 05:02:42;;;;;;;0.20;0.20;;;;;;;1.41;87.11;102440.94;4855021;29;20187;-57
2023/02/28 05:05:08;;;;;;;0.60;0.60;;;;;;;1.36;87.37;102444.31;4875102;29;20044;-55
2023/02/28 05:07:33;;;;;;;1.08;0.70;;;;;;;1.45;87.56;102444.69;4874955;29;20088;-57
2023/02/28 05:09:59;;;;;;;0.55;0.55;;;;;;;1.42;87.51;102451.28;4884742;29;20051;-56
2023/02/28 05:12:24;;;;;;;0.38;0.38;;;;;;;1.50;86.99;102442.88;4903349;29;20054;-55
2023/02/28 05:14:50;;;;;;;0.40;0.40;;;;;;;1.47;87.36;102456.63;4905481;29;20028;-53
2023/02/28 05:17:16;;;;;;;0.20;0.20;;;;;;;1.45;86.88;102450.78;4896619;29;20143;-55
2023/02/28 05:19:41;;;;;;;0.47;0.47;;;;;;;1.45;86.85;102450.78;4899283;29;20045;-56
2023/02/28 05:22:12;;;;;;;0.30;0.30;;;;;;;1.45;87.28;102450.78;4891647;29;20058;-56
2023/02/28 05:24:37;;;;;;;0.40;0.40;;;;;;;1.35;87.29;102445.38;4883328;29;20518;-55
2023/02/28 05:27:03;;;;;;;0.85;0.47;;;;;;;1.37;86.87;102448.59;4906537;29;20024;-55
2023/02/28 05:29:28;;;;;;;0.52;0.52;;;;;;;1.33;86.77;102450.13;4900901;29;20040;-57
2023/02/28 05:31:54;;;;;;;0.30;0.30;;;;;;;1.29;87.20;102454.34;4895438;29;20055;-57
2023/02/28 05:34:19;;;;;;;0.63;0.63;;;;;;;1.45;86.72;102460.63;4911853;29;20124;-55
2023/02/28 05:36:45;;;;;;;0.28;0.28;;;;;;;1.36;86.85;102454.94;4942927;28;20125;-58
2023/02/28 05:39:12;;;;;;;0.70;0.70;;;;;;;1.40;87.14;102450.72;5003571;28;20073;-56
2023/02/28 05:41:40;;;;;;;0.75;0.40;;;;;;;1.38;86.47;102450.19;5004470;28;20096;-57
2023/02/28 05:44:05;;;;;;;0.30;0.30;;;;;;;1.17;86.89;102445.69;5002162;28;20038;-57
2023/02/28 05:46:31;;;;;;;0.30;0.30;;;;;;;1.13;87.52;102457.03;4998065;28;20022;-57
2023/02/28 05:48:57;;;;;;;0.20;0.20;;;;;;;1.26;87.40;102470.72;5008356;28;20034;-53
2023/02/28 05:51:23;;;;;;;0.30;0.30;;;;;;;1.23;87.19;102467.78;5010467;28;20144;-56
2023/02/28 05:53:49;;;;;;;0.20;0.20;;;;;;;1.31;87.17;102456.72;5008695;28;20544;-54
2023/02/28 05:56:14;;;;;;;0.40;0.40;;;;;;;1.28;86.73;102455.38;5010119;28;20408;-57
2023/02/28 05:58:40;;;;;;;0.30;0.30;;;;;;;1.21;87.15;102457.41;5008672;28;20026;-55
2023/02/28 06:01:20;;;;;;;0.63;0.63;;;;;;;1.12;87.78;102463.41;4997408;28;20141;-56
2023/02/28 06:03:46;;;;;;;0.40;0.40;;;;;;;1.32;86.83;102468.94;4995096;28;20034;-57
2023/02/28 06:06:11;;;;;;;3.30;1.08;;;;;;;1.13;87.11;102476.41;4995039;28;20432;-56
2023/02/28 06:08:37;;;;;;;0.52;0.52;;;;;;;1.06;87.06;102475.00;4991556;28;20034;-57
2023/02/28 06:11:03;;;;;;;0.70;0.70;;;;;;;1.10;87.58;102474.25;4999240;28;20036;-56
2023/02/28 06:13:29;;;;;;;0.40;0.40;;;;;;;1.12;86.83;102472.16;4998954;28;20044;-57
2023/02/28 06:15:55;;;;;;;0.30;0.30;;;;;;;1.15;87.15;102468.19;5004448;28;20033;-55
2023/02/28 06:18:20;;;;;;;0.40;0.40;;;;;;;1.12;87.18;102471.34;5000191;28;20040;-55
2023/02/28 06:20:54;;;;;;;1.20;0.80;;;;;;;0.98;87.19;102478.88;4997075;28;20137;-58
2023/02/28 06:23:20;;;;;;;0.52;0.52;;;;;;;0.78;87.65;102476.75;4989431;28;21100;-56
2023/02/28 06:25:46;;;;;;;0.20;0.20;;;;;;;0.79;88.85;102480.97;4998113;28;20068;-56
2023/02/28 06:28:12;;;;;;;0.32;0.32;;;;;;;0.96;88.57;102483.63;5002736;28;20029;-56
2023/02/28 06:30:39;;;;;;;1.55;0.60;;;;;;;0.86;88.40;102492.25;5000572;28;20041;-56
2023/02/28 06:33:04;;;;;;;0.60;0.60;;;;;;;0.85;88.78;102487.19;4999606;28;20503;-58
2023/02/28 06:35:30;;;;;;;0.75;0.50;;;;;;;1.07;87.81;102495.94;4969197;28;20117;-57
2023/02/28 06:37:56;;;;;;;0.38;0.38;;;;;;;0.96;88.28;102485.47;4996331;28;20029;-58
2023/02/28 06:40:21;;;;;;;0.30;0.30;;;;;;;1.01;87.76;102490.84;5001787;28;20085;-57
2023/02/28 06:42:47;;;;;;;0.63;0.63;;;;;;;0.89;88.84;102496.25;4989330;28;20125;-59
2023/02/28 06:45:12;;;;;;;0.30;0.30;;;;;;;0.75;88.61;102492.34;4991825;28;20044;-59
2023/02/28 06:47:40;;;;;;;0.30;0.30;;;;;;;0.58;89.72;102494.22;4988952;28;20038;-58
2023/02/28 06:50:07;;;;;;;0.20;0.20;;;;;;;0.81;89.87;102483.41;5001806;28;20384;-58
2023/02/28 06:52:36;;;;;;;0.80;0.80;;;;;;;0.91;88.97;102486.19;5004693;28;20353;-58
2023/02/28 06:55:02;;;;;;;0.50;0.50;;;;;;;0.83;89.56;102491.94;5001939;28;20109;-58
2023/02/28 06:57:32;;;;;;;0.70;0.70;;;;;;;1.00;89.18;102495.34;5008490;28;20041;-59
2023/02/28 06:59:59;;;;;;;0.40;0.40;;;;;;;1.09;88.71;102487.75;4998979;28;20100;-58
2023/02/28 07:02:25;;;;;;;0.40;0.40;;;;;;;1.11;88.43;102497.06;5006580;28;20033;-53
2023/02/28 07:04:51;;;;;;;1.10;0.40;;;;;;;1.19;88.54;102496.66;5014327;28;20065;-54
2023/02/28 07:07:16;;;;;;;0.20;0.20;;;;;;;1.32;88.14;102492.81;4998721;28;20465;-54
2023/02/28 07:09:42;;;;;;;0.40;0.40;;;;;;;1.31;88.39;102496.53;5013667;28;20025;-57
2023/02/28 07:12:07;;;;;;;0.25;0.25;;;;;;;1.23;89.42;102505.72;5015119;28;20038;-58
2023/02/28 07:14:33;;;;;;;0.30;0.30;;;;;;;1.23;89.72;102499.59;5007158;28;20080;-57
2023/02/28 07:16:58;;;;;;;0.50;0.50;;;;;;;1.23;89.33;102496.94;5015629;28;20427;-57
2023/02/28 07:19:24;;;;;;;0.50;0.50;;;;;;;1.18;89.48;102504.84;5015731;28;20048;-58
2023/02/28 07:21:49;;;;;;;0.30;0.30;;;;;;;1.22;90.41;102504.09;5015660;28;20030;-56
2023/02/28 07:24:15;;;;;;;0.20;0.20;;;;;;;1.38;89.97;102515.69;5013060;28;20785;-57
2023/02/28 07:26:41;;;;;;;0.90;0.82;;;;;;;1.46;89.63;102508.13;5015357;28;20034;-57
2023/02/28 07:29:07;;;;;;;0.25;0.25;;;;;;;1.57;88.88;102509.03;5015270;28;20563;-58
2023/02/28 07:31:32;;;;;;;0.52;0.52;;;;;;;1.62;89.54;102504.59;5002618;28;20034;-57
2023/02/28 07:33:58;;;;;;;0.52;0.52;;;;;;;1.78;89.12;102502.91;5013689;28;20034;-58
2023/02/28 07:36:24;;;;;;;8.38;1.17;;;;;;;2.05;88.47;102497.59;5015507;28;20033;-57
2023/02/28 07:38:50;;;;;;;0.93;0.93;;;;;;;2.06;88.75;102509.81;5010669;28;20036;-56
2023/02/28 07:41:18;;;;;;;1.15;1.15;;;;;;;2.14;88.87;102496.88;5009840;28;20558;-56
2023/02/28 07:43:44;;;;;;;0.77;0.77;;;;;;;2.23;88.35;102498.00;5007828;28;20041;-59
2023/02/28 07:46:14;;;;;;;0.60;0.60;;;;;;;2.30;88.58;102503.94;5008780;28;20025;-57
2023/02/28 07:48:40;;;;;;;0.80;0.80;;;;;;;2.25;88.73;102506.53;5014014;28;20121;-58
2023/02/28 07:51:06;;;;;;;0.43;0.43;;;;;;;2.59;88.17;102513.16;5015593;28;20117;-59
2023/02/28 07:53:32;;;;;;;0.45;0.45;;;;;;;2.94;87.31;102515.28;5013593;28;20040;-58
2023/02/28 07:56:00;;;;;;;0.30;0.30;;;;;;;3.29;85.95;102507.47;5015152;28;20033;-59
2023/02/28 07:58:27;;;;;;;0.60;0.60;;;;;;;3.85;83.69;102508.47;5015612;28;20511;-58
2023/02/28 08:00:53;;;;;;;1.40;1.02;;;;;;;3.86;82.65;102511.91;5009253;28;20105;-59
2023/02/28 08:03:20;;;;;;;0.40;0.40;;;;;;;4.09;83.27;102520.22;5008502;28;20164;-59
2023/02/28 08:05:45;;;;;;;0.82;0.82;;;;;;;4.20;81.14;102518.38;5014946;28;20038;-55
2023/02/28 08:08:11;;;;;;;0.47;0.47;;;;;;;4.51;80.17;102515.41;5012357;28;20033;-59
2023/02/28 08:10:37;;;;;;;0.50;0.50;;;;;;;4.81;79.25;102514.59;5011173;28;20044;-58
2023/02/28 08:13:02;;;;;;;0.82;0.65;;;;;;;4.79;77.72;102513.25;5012734;28;20030;-59
2023/02/28 08:15:28;;;;;;;0.43;0.43;;;;;;;4.74;77.43;102526.63;5002083;28;20041;-57
2023/02/28 08:17:55;;;;;;;0.30;0.30;;;;;;;4.88;78.21;102530.34;5007497;28;20040;-57
2023/02/28 08:20:21;;;;;;;0.40;0.40;;;;;;;5.23;76.87;102525.69;5010122;28;20038;-57
2023/02/28 08:22:47;;;;;;;0.30;0.30;;;;;;;5.77;75.81;102523.03;5011806;28;20022;-59
2023/02/28 08:25:13;;;;;;;0.60;0.60;;;;;;;6.15;74.95;102530.31;5012118;28;20044;-57
2023/02/28 08:27:38;;;;;;;0.50;0.50;;;;;;;6.43;73.18;102539.47;5012134;28;20025;-58
2023/02/28 08:30:05;;;;;;;0.47;0.47;;;;;;;6.68;71.69;102538.47;5008264;28;20038;-59
2023/02/28 08:32:32;;;;;;;0.35;0.35;;;;;;;6.79;71.58;102534.59;5012904;28;20464;-58
2023/02/28 08:34:57;;;;;;;1.95;0.50;;;;;;;7.09;70.73;102535.09;5011924;28;20037;-59
2023/02/28 08:37:23;;;;;;;0.55;0.50;;;;;;;7.34;68.37;102534.00;5012670;28;20079;-59
2023/02/28 08:39:49;;;;;;;3.00;0.82;;;;;;;7.69;65.48;102541.59;4995569;28;20085;-58
2023/02/28 08:42:14;;;;;;;0.40;0.40;;;;;;;7.80;64.15;102536.91;5008369;28;20480;-57
2023/02/28 08:44:40;;;;;;;0.35;0.35;;;;;;;8.01;63.20;102539.00;4994115;28;20026;-59
2023/02/28 08:47:06;;;;;;;0.93;0.45;;;;;;;8.13;62.38;102543.91;5010216;28;20036;-58
2023/02/28 08:49:32;;;;;;;3.38;0.60;;;;;;;8.39;60.47;102539.00;5011628;28;20030;-57
2023/02/28 08:51:57;;;;;;;0.30;0.30;;;;;;;8.65;59.24;102554.38;5010317;28;20029;-59
2023/02/28 08:54:23;;;;;;;0.65;0.63;;;;;;;8.85;57.55;102548.69;5006657;28;20036;-59
2023/02/28 08:56:49;;;;;;;0.40;0.40;;;;;;;8.77;56.11;102549.34;5004953;28;20045;-56
2023/02/28 08:59:35;;;;;;;0.85;0.40;;;;;;;8.91;55.89;102544.00;5004014;28;20743;-59
2023/02/28 09:02:01;;;;;;;0.47;0.20;;;;;;;9.09;55.51;102543.94;4939540;28;20130;-60
2023/02/28 09:04:26;;;;;;;0.28;0.28;;;;;;;9.14;54.96;102551.09;4942134;28;20130;-59
2023/02/28 09:06:52;;;;;;;0.20;0.20;;;;;;;9.39;53.59;102552.50;4943235;29;20051;-59
2023/02/28 09:09:17;;;;;;;0.20;0.20;;;;;;;9.70;53.00;102561.53;4945464;29;20039;-58
2023/02/28 09:11:43;;;;;;;0.57;0.50;;;;;;;9.61;52.13;102556.06;4948758;29;20071;-59
2023/02/28 09:14:08;;;;;;;0.60;0.47;;;;;;;9.78;52.42;102552.75;4945075;29;20035;-59
2023/02/28 09:16:34;;;;;;;1.80;0.40;;;;;;;10.07;52.54;102558.56;4947945;28;20130;-57
2023/02/28 09:19:01;;;;;;;0.28;0.25;;;;;;;10.56;51.07;102560.38;4948038;29;20039;-59
2023/02/28 09:21:27;;;;;;;0.40;0.40;;;;;;;10.48;50.20;102559.22;4933631;29;20038;-59
2023/02/28 09:23:52;;;;;;;1.08;0.63;;;;;;;10.46;50.11;102560.63;4948251;29;20038;-59
2023/02/28 09:26:22;;;;;;;0.35;0.20;;;;;;;10.63;49.88;102563.44;4945345;28;20510;-58
2023/02/28 09:28:48;;;;;;;0.30;0.30;;;;;;;10.62;50.00;102565.34;4943944;29;20034;-59
2023/02/28 09:31:20;;;;;;;0.13;0.13;;;;;;;10.62;49.19;102562.66;4947449;29;20533;-60
2023/02/28 09:33:46;;;;;;;0.52;0.52;;;;;;;10.97;49.65;102568.22;4934474;29;20051;-60
2023/02/28 09:36:12;;;;;;;0.50;0.43;;;;;;;11.09;48.43;102571.16;4945594;29;20042;-60
2023/02/28 09:38:38;;;;;;;0.25;0.25;;;;;;;11.06;48.43;102561.78;4962874;28;20048;-59
2023/02/28 09:41:13;;;;;;;0.20;0.20;;;;;;;11.31;47.88;102565.69;4999468;28;20119;-56
2023/02/28 09:43:41;;;;;;;0.32;0.32;;;;;;;11.25;48.16;102566.91;5005210;28;20040;-57
2023/02/28 09:46:32;;;;;;;0.15;0.15;;;;;;;11.02;47.07;102563.50;5005273;28;20021;-60
2023/02/28 09:49:00;;;;;;;0.10;0.10;;;;;;;10.51;45.75;102566.69;5003664;28;20037;-58
2023/02/28 09:51:40;;;;;;;0.20;0.20;;;;;;;10.51;47.52;102574.75;5000979;28;20083;-58
2023/02/28 09:54:06;;;;;;;0.10;0.10;;;;;;;10.48;47.25;102569.19;5006681;28;20111;-55
2023/02/28 09:56:41;;;;;;;0.22;0.22;;;;;;;10.80;45.99;102572.41;5009293;28;20022;-55
2023/02/28 09:59:12;;;;;;;0.30;0.30;;;;;;;10.72;43.48;102580.47;5008574;28;20049;-60
2023/02/28 10:01:50;;;;;;;;;;;;;;;10.55;43.74;102572.28;5010868;28;20378;-60
2023/02/28 10:04:40;;;;;;;0.50;0.50;;;;;;;10.68;42.85;102569.50;5010308;28;19938;-58
2023/02/28 10:07:20;;;;;;;0.10;0.10;;;;;;;10.47;44.02;102573.78;5009738;22;20041;-49
2023/02/28 10:09:49;;;;;;;0.10;0.10;;;;;;;10.61;44.52;102573.72;4995189;28;20516;-50
2023/02/28 10:12:16;;;;;;;0.10;0.10;;;;;;;10.81;43.14;102574.03;5005502;28;20396;-50
2023/02/28 10:14:46;;;;;;;0.10;0.10;;;;;;;10.92;43.75;102569.16;5006696;28;20044;-52
2023/02/28 10:17:30;;;;;;;0.10;0.10;;;;;;;10.71;43.86;102562.69;5007587;28;20044;-51
2023/02/28 10:20:07;;;;;;;0.10;0.10;;;;;;;10.91;44.27;102567.56;5007318;28;20124;-50
2023/02/28 10:22:57;;;;;;;0.10;0.10;;;;;;;11.11;43.79;102567.03;5009351;28;20104;-47
2023/02/28 10:25:26;;;;;;;0.32;0.30;;;;;;;11.15;43.79;102564.53;5006999;28;20034;-50
2023/02/28 10:28:16;;;;;;;0.10;0.10;;;;;;;11.26;43.64;102568.53;5007203;28;20448;-51
2023/02/28 10:30:50;;;;;;;0.30;0.30;;;;;;;11.21;43.09;102569.44;5003818;28;20054;-50
2023/02/28 10:33:24;;;;;;;0.10;0.10;;;;;;;11.15;42.80;102572.63;5007272;28;20053;-49
2023/02/28 10:35:52;;;;;;;2.10;0.43;;;;;;;10.76;42.26;102566.06;5006513;28;20479;-49
2023/02/28 10:38:27;;;;;;;0.20;0.20;;;;;;;10.88;42.28;102562.78;5008486;28;20028;-49
2023/02/28 10:41:04;;;;;;;0.10;0.10;;;;;;;10.59;42.55;102563.25;5009671;28;20096;-52
2023/02/28 10:43:30;;;;;;;0.22;0.22;;;;;;;10.77;42.98;102564.97;5021433;28;20065;-50
2023/02/28 10:46:27;;;;;;;0.45;0.45;;;;;;;10.41;43.23;102558.88;5021992;28;20388;-48
2023/02/28 10:49:14;;;;;;;0.30;0.30;;;;;;;10.64;43.82;102563.16;5004400;28;20034;-50
2023/02/28 10:51:40;;;;;;;0.30;0.30;;;;;;;10.95;44.49;102568.56;5005998;28;20033;-49
2023/02/28 10:54:15;;;;;;;0.20;0.20;;;;;;;11.21;44.19;102555.16;4999409;28;20041;-51
2023/02/28 10:56:42;;;;;;;0.20;0.20;;;;;;;11.35;43.66;102553.97;5004344;28;20389;-48
2023/02/28 10:59:07;;;;;;;0.20;0.20;;;;;;;11.43;42.46;102552.41;5008590;28;20061;-49
2023/02/28 11:01:51;;;;;;;0.10;0.10;;;;;;;11.50;42.23;102563.50;5006646;28;20740;-52
2023/02/28 11:04:36;;;;;;;0.10;0.10;;;;;;;11.45;43.32;102561.78;5007984;28;20041;-49
2023/02/28 11:07:17;;;;;;;0.40;0.20;;;;;;;11.24;43.47;102562.66;5009047;28;20057;-51
2023/02/28 11:09:47;;;;;;;0.10;0.10;;;;;;;11.40;43.63;102566.53;5003813;28;20037;-52
2023/02/28 11:12:29;;;;;;;0.17;0.17;;;;;;;11.21;44.26;102555.16;5022660;28;20401;-48
2023/02/28 11:15:01;;;;;;;0.10;0.10;;;;;;;11.20;44.01;102564.38;5006849;28;20026;-48
2023/02/28 11:17:29;;;;;;;0.10;0.10;;;;;;;11.31;43.02;102557.59;5009353;28;20078;-46
2023/02/28 11:20:03;;;;;;;0.30;0.20;;;;;;;11.29;42.71;102566.00;5009148;28;20088;-46
2023/02/28 11:22:38;;;;;;;0.10;0.10;;;;;;;11.30;42.20;102561.41;5009892;28;20092;-49
2023/02/28 11:25:15;;;;;;;0.10;0.10;;;;;;;11.36;42.97;102560.16;5009118;28;20069;-45
2023/02/28 11:27:46;;;;;;;0.10;0.10;;;;;;;11.17;43.42;102565.00;5008598;28;20026;-47
2023/02/28 11:30:33;;;;;;;;;;;;;;;11.31;43.67;102557.59;5008456;28;20037;-47
2023/02/28 11:32:58;;;;;;;0.20;0.10;;;;;;;11.49;42.30;102560.03;5009793;28;19921;-47
2023/02/28 11:35:41;;;;;;;0.13;0.13;;;;;;;11.46;43.35;102549.06;5006235;28;20018;-46
2023/02/28 11:38:15;;;;;;;0.17;0.17;;;;;;;11.34;43.35;102548.88;5009079;28;20485;-47
2023/02/28 11:40:59;;;;;;;0.20;0.20;;;;;;;11.36;43.51;102554.75;5007992;28;20090;-47
2023/02/28 11:43:25;;;;;;;0.08;0.08;;;;;;;11.21;44.17;102542.47;5005743;28;20644;-45
2023/02/28 11:46:15;;;;;;;0.30;0.30;;;;;;;11.20;44.08;102543.59;5008084;28;20040;-47